sensor_id;sensor_type;location;lat;lon;timestamp;pressure;altitude;pressure_sealevel;temperature;humidity
66486;BME280;53303;47.476;8.084;2023-05-24T00:02:10;95430.09;;;22.70;51.21
66486;BME280;53303;47.476;8.084;2023-05-24T00:04:38;95441.66;;;22.74;51.33
66486;BME280;53303;47.476;8.084;2023-05-24T00:07:04;95443.25;;;22.70;51.29
66486;BME280;53303;47.476;8.084;2023-05-24T00:09:31;95441.44;;;22.72;51.31
66486;BME280;53303;47.476;8.084;2023-05-24T00:11:56;95442.22;;;22.73;51.21
66486;BME280;53303;47.476;8.084;2023-05-24T00:14:22;95440.69;;;22.72;51.21
66486;BME280;53303;47.476;8.084;2023-05-24T00:16:47;95432.88;;;22.70;51.29
66486;BME280;53303;47.476;8.084;2023-05-24T00:19:13;95430.41;;;22.67;51.37
66486;BME280;53303;47.476;8.084;2023-05-24T00:21:46;95439.97;;;22.71;51.11
66486;BME280;53303;47.476;8.084;2023-05-24T00:24:12;95449.03;;;22.72;51.24
66486;BME280;53303;47.476;8.084;2023-05-24T00:26:38;95441.53;;;22.67;51.21
66486;BME280;53303;47.476;8.084;2023-05-24T00:29:03;95456.13;;;22.73;51.15
66486;BME280;53303;47.476;8.084;2023-05-24T00:31:29;95441.00;;;22.68;51.07
66486;BME280;53303;47.476;8.084;2023-05-24T00:33:54;95442.75;;;22.71;51.11
66486;BME280;53303;47.476;8.084;2023-05-24T00:36:20;95442.53;;;22.69;51.15
66486;BME280;53303;47.476;8.084;2023-05-24T00:38:45;95441.44;;;22.72;51.10
66486;BME280;53303;47.476;8.084;2023-05-24T00:41:11;95433.19;;;22.67;51.32
66486;BME280;53303;47.476;8.084;2023-05-24T00:43:37;95445.53;;;22.71;51.17
66486;BME280;53303;47.476;8.084;2023-05-24T00:46:13;95447.53;;;22.71;51.12
66486;BME280;53303;47.476;8.084;2023-05-24T00:48:40;95440.25;;;22.68;51.19
66486;BME280;53303;47.476;8.084;2023-05-24T00:51:06;95425.88;;;22.63;51.15
66486;BME280;53303;47.476;8.084;2023-05-24T00:53:35;95434.19;;;22.69;50.93
66486;BME280;53303;47.476;8.084;2023-05-24T00:56:02;95430.63;;;22.69;51.03
66486;BME280;53303;47.476;8.084;2023-05-24T00:58:29;95433.63;;;22.71;51.07
66486;BME280;53303;47.476;8.084;2023-05-24T01:00:59;95410.47;;;22.62;51.04
66486;BME280;53303;47.476;8.084;2023-05-24T01:03:26;95422.50;;;22.71;51.07
66486;BME280;53303;47.476;8.084;2023-05-24T01:05:59;95423.78;;;22.70;50.93
66486;BME280;53303;47.476;8.084;2023-05-24T01:13:58;95415.22;;;22.68;51.12
66486;BME280;53303;47.476;8.084;2023-05-24T01:22:12;95429.13;;;22.68;51.06
66486;BME280;53303;47.476;8.084;2023-05-24T01:24:52;95417.00;;;22.65;51.09
66486;BME280;53303;47.476;8.084;2023-05-24T01:27:21;95417.25;;;22.67;51.17
66486;BME280;53303;47.476;8.084;2023-05-24T01:29:48;95424.31;;;22.68;51.13
66486;BME280;53303;47.476;8.084;2023-05-24T01:32:20;95418.75;;;22.68;51.15
66486;BME280;53303;47.476;8.084;2023-05-24T01:34:46;95423.56;;;22.68;50.92
66486;BME280;53303;47.476;8.084;2023-05-24T01:37:11;95419.06;;;22.65;51.21
66486;BME280;53303;47.476;8.084;2023-05-24T01:39:36;95410.78;;;22.59;51.07
66486;BME280;53303;47.476;8.084;2023-05-24T01:42:36;95424.31;;;22.68;51.05
66486;BME280;53303;47.476;8.084;2023-05-24T01:47:44;95420.31;;;22.63;51.15
66486;BME280;53303;47.476;8.084;2023-05-24T01:50:22;95422.56;;;22.65;51.11
66486;BME280;53303;47.476;8.084;2023-05-24T01:52:50;95424.09;;;22.66;51.14
66486;BME280;53303;47.476;8.084;2023-05-24T01:55:17;95421.31;;;22.66;51.03
66486;BME280;53303;47.476;8.084;2023-05-24T01:57:47;95420.31;;;22.63;51.01
66486;BME280;53303;47.476;8.084;2023-05-24T02:00:16;95427.63;;;22.67;51.08
66486;BME280;53303;47.476;8.084;2023-05-24T02:02:42;95420.31;;;22.63;51.07
66486;BME280;53303;47.476;8.084;2023-05-24T02:05:10;95414.53;;;22.61;51.16
66486;BME280;53303;47.476;8.084;2023-05-24T02:07:36;95424.09;;;22.66;51.06
66486;BME280;53303;47.476;8.084;2023-05-24T02:10:02;95418.53;;;22.66;51.07
66486;BME280;53303;47.476;8.084;2023-05-24T02:12:30;95418.53;;;22.66;50.90
66486;BME280;53303;47.476;8.084;2023-05-24T02:14:56;95411.44;;;22.65;51.00
66486;BME280;53303;47.476;8.084;2023-05-24T02:17:21;95414.53;;;22.61;51.12
66486;BME280;53303;47.476;8.084;2023-05-24T02:19:49;95417.53;;;22.63;51.15
66486;BME280;53303;47.476;8.084;2023-05-24T02:22:15;95424.63;;;22.65;51.02
66486;BME280;53303;47.476;8.084;2023-05-24T02:24:40;95411.97;;;22.63;50.96
66486;BME280;53303;47.476;8.084;2023-05-24T02:27:09;95404.47;;;22.58;50.95
66486;BME280;53303;47.476;8.084;2023-05-24T02:29:36;95416.28;;;22.65;50.97
66486;BME280;53303;47.476;8.084;2023-05-24T02:32:02;95415.53;;;22.64;51.01
66486;BME280;53303;47.476;8.084;2023-05-24T02:34:27;95403.09;;;22.65;50.97
66486;BME280;53303;47.476;8.084;2023-05-24T02:36:52;95405.88;;;22.65;50.88
66486;BME280;53303;47.476;8.084;2023-05-24T02:39:21;95411.44;;;22.65;51.20
66486;BME280;53303;47.476;8.084;2023-05-24T02:41:46;95418.31;;;22.64;50.95
66486;BME280;53303;47.476;8.084;2023-05-24T02:44:11;95419.06;;;22.65;50.85
66486;BME280;53303;47.476;8.084;2023-05-24T02:46:37;95418.09;;;22.62;50.91
66486;BME280;53303;47.476;8.084;2023-05-24T02:49:02;95406.78;;;22.54;50.80
66486;BME280;53303;47.476;8.084;2023-05-24T02:51:29;95410.03;;;22.58;50.88
66486;BME280;53303;47.476;8.084;2023-05-24T02:53:54;95413.78;;;22.61;51.04
66486;BME280;53303;47.476;8.084;2023-05-24T02:56:19;95410.47;;;22.62;50.92
66486;BME280;53303;47.476;8.084;2023-05-24T02:58:46;95406.97;;;22.62;51.09
66486;BME280;53303;47.476;8.084;2023-05-24T03:01:11;95413.25;;;22.62;50.88
66486;BME280;53303;47.476;8.084;2023-05-24T03:03:40;95405.22;;;22.59;50.81
66486;BME280;53303;47.476;8.084;2023-05-24T03:06:06;95416.03;;;22.62;50.77
66486;BME280;53303;47.476;8.084;2023-05-24T03:08:32;95406.41;;;22.63;50.83
66486;BME280;53303;47.476;8.084;2023-05-24T03:10:58;95404.69;;;22.60;51.03
66486;BME280;53303;47.476;8.084;2023-05-24T03:13:23;95409.75;;;22.62;50.84
66486;BME280;53303;47.476;8.084;2023-05-24T03:15:51;95409.75;;;22.62;50.91
66486;BME280;53303;47.476;8.084;2023-05-24T03:18:16;95397.91;;;22.56;50.66
66486;BME280;53303;47.476;8.084;2023-05-24T03:20:41;95400.94;;;22.58;50.94
66486;BME280;53303;47.476;8.084;2023-05-24T03:23:07;95405.44;;;22.61;50.93
66486;BME280;53303;47.476;8.084;2023-05-24T03:25:33;95395.06;;;22.61;50.82
66486;BME280;53303;47.476;8.084;2023-05-24T03:27:59;95396.34;;;22.60;50.86
66486;BME280;53303;47.476;8.084;2023-05-24T03:30:26;95397.09;;;22.61;50.80
66486;BME280;53303;47.476;8.084;2023-05-24T03:32:52;95382.50;;;22.55;50.76
66486;BME280;53303;47.476;8.084;2023-05-24T03:35:17;95400.63;;;22.61;50.88
66486;BME280;53303;47.476;8.084;2023-05-24T03:37:43;95397.09;;;22.61;50.77
66486;BME280;53303;47.476;8.084;2023-05-24T03:40:08;95373.50;;;22.49;50.74
66486;BME280;53303;47.476;8.084;2023-05-24T03:42:34;95395.59;;;22.60;50.80
66486;BME280;53303;47.476;8.084;2023-05-24T03:44:59;95393.88;;;22.57;50.82
66486;BME280;53303;47.476;8.084;2023-05-24T03:47:27;95401.69;;;22.58;50.82
66486;BME280;53303;47.476;8.084;2023-05-24T03:49:55;95403.94;;;22.60;50.80
66486;BME280;53303;47.476;8.084;2023-05-24T03:52:23;95398.38;;;22.60;50.85
66486;BME280;53303;47.476;8.084;2023-05-24T03:54:49;95399.13;;;22.60;50.73
66486;BME280;53303;47.476;8.084;2023-05-24T03:57:14;95396.88;;;22.59;50.81
66486;BME280;53303;47.476;8.084;2023-05-24T03:59:40;95397.69;;;22.54;51.04
66486;BME280;53303;47.476;8.084;2023-05-24T04:02:05;95395.59;;;22.60;51.06
66486;BME280;53303;47.476;8.084;2023-05-24T04:04:33;95400.94;;;22.58;50.74
66486;BME280;53303;47.476;8.084;2023-05-24T04:07:01;95392.88;;;22.54;50.64
66486;BME280;53303;47.476;8.084;2023-05-24T04:09:26;95399.19;;;22.55;50.44
66486;BME280;53303;47.476;8.084;2023-05-24T04:11:51;95397.69;;;22.54;50.33
66486;BME280;53303;47.476;8.084;2023-05-24T04:14:17;95402.97;;;22.57;50.54
66486;BME280;53303;47.476;8.084;2023-05-24T04:16:42;95412.28;;;22.60;50.49
66486;BME280;53303;47.476;8.084;2023-05-24T04:19:10;95408.22;;;22.61;50.49
66486;BME280;53303;47.476;8.084;2023-05-24T04:21:36;95415.06;;;22.60;50.47
66486;BME280;53303;47.476;8.084;2023-05-24T04:24:03;95412.28;;;22.60;50.60
66486;BME280;53303;47.476;8.084;2023-05-24T04:26:29;95408.00;;;22.59;50.66
66486;BME280;53303;47.476;8.084;2023-05-24T04:28:56;95405.22;;;22.59;50.57
66486;BME280;53303;47.476;8.084;2023-05-24T04:31:21;95397.00;;;22.48;50.58
66486;BME280;53303;47.476;8.084;2023-05-24T04:33:49;95401.69;;;22.58;50.50
66486;BME280;53303;47.476;8.084;2023-05-24T04:36:15;95409.25;;;22.58;50.64
66486;BME280;53303;47.476;8.084;2023-05-24T04:38:43;95405.75;;;22.57;50.61
66486;BME280;53303;47.476;8.084;2023-05-24T04:41:10;95410.78;;;22.59;50.68
66486;BME280;53303;47.476;8.084;2023-05-24T04:43:36;95416.34;;;22.59;50.68
66486;BME280;53303;47.476;8.084;2023-05-24T04:46:05;95420.38;;;22.58;50.69
66486;BME280;53303;47.476;8.084;2023-05-24T04:48:30;95416.88;;;22.57;50.63
66486;BME280;53303;47.476;8.084;2023-05-24T04:50:56;95415.66;;;22.53;50.68
66486;BME280;53303;47.476;8.084;2023-05-24T04:53:22;95422.44;;;22.57;50.59
66486;BME280;53303;47.476;8.084;2023-05-24T04:55:49;95419.19;;;22.53;50.59
66486;BME280;53303;47.476;8.084;2023-05-24T04:58:15;95428.00;;;22.57;50.61
66486;BME280;53303;47.476;8.084;2023-05-24T05:00:41;95426.47;;;22.56;50.56
66486;BME280;53303;47.476;8.084;2023-05-24T05:03:07;95419.50;;;22.50;50.66
66486;BME280;53303;47.476;8.084;2023-05-24T05:05:33;95428.50;;;22.56;50.56
66486;BME280;53303;47.476;8.084;2023-05-24T05:08:02;95431.28;;;22.56;50.71
66486;BME280;53303;47.476;8.084;2023-05-24T05:10:28;95414.47;;;22.48;50.73
66486;BME280;53303;47.476;8.084;2023-05-24T05:12:54;95431.81;;;22.54;50.66
66486;BME280;53303;47.476;8.084;2023-05-24T05:15:21;95441.66;;;22.55;50.76
66486;BME280;53303;47.476;8.084;2023-05-24T05:17:47;95426.09;;;22.47;50.81
66486;BME280;53303;47.476;8.084;2023-05-24T05:20:12;95429.31;;;22.51;50.68
66486;BME280;53303;47.476;8.084;2023-05-24T05:22:38;95437.97;;;22.47;50.76
66486;BME280;53303;47.476;8.084;2023-05-24T05:25:04;95439.41;;;22.54;50.88
66486;BME280;53303;47.476;8.084;2023-05-24T05:27:29;95439.41;;;22.54;50.68
66486;BME280;53303;47.476;8.084;2023-05-24T05:29:55;95447.75;;;22.54;50.64
66486;BME280;53303;47.476;8.084;2023-05-24T05:32:20;95444.22;;;22.53;50.64
66486;BME280;53303;47.476;8.084;2023-05-24T05:34:45;95443.97;;;22.51;50.65
66486;BME280;53303;47.476;8.084;2023-05-24T05:37:11;95434.22;;;22.45;50.59
66486;BME280;53303;47.476;8.084;2023-05-24T05:39:39;95445.50;;;22.52;50.75
66486;BME280;53303;47.476;8.084;2023-05-24T05:42:05;95439.94;;;22.52;50.75
66486;BME280;53303;47.476;8.084;2023-05-24T05:44:30;95441.97;;;22.52;50.68
66486;BME280;53303;47.476;8.084;2023-05-24T05:46:56;95437.97;;;22.47;50.79
66486;BME280;53303;47.476;8.084;2023-05-24T05:49:24;95443.00;;;22.49;50.68
66486;BME280;53303;47.476;8.084;2023-05-24T05:51:52;95449.00;;;22.53;50.66
66486;BME280;53303;47.476;8.084;2023-05-24T05:54:18;95455.09;;;22.51;50.69
66486;BME280;53303;47.476;8.084;2023-05-24T05:56:46;95449.84;;;22.48;50.73
66486;BME280;53303;47.476;8.084;2023-05-24T05:59:13;95455.88;;;22.52;50.71
66486;BME280;53303;47.476;8.084;2023-05-24T06:01:40;95456.69;;;22.47;50.54
66486;BME280;53303;47.476;8.084;2023-05-24T06:04:05;95464.72;;;22.50;50.84
66486;BME280;53303;47.476;8.084;2023-05-24T06:06:34;95460.66;;;22.51;50.63
66486;BME280;53303;47.476;8.084;2023-05-24T06:09:00;95456.69;;;22.47;50.67
66486;BME280;53303;47.476;8.084;2023-05-24T06:11:25;95453.16;;;22.46;50.76
66486;BME280;53303;47.476;8.084;2023-05-24T06:13:53;95463.44;;;22.51;50.66
66486;BME280;53303;47.476;8.084;2023-05-24T06:16:19;95450.66;;;22.42;50.75
66486;BME280;53303;47.476;8.084;2023-05-24T06:18:45;95443.00;;;22.49;50.67
66486;BME280;53303;47.476;8.084;2023-05-24T06:21:15;95455.66;;;22.50;50.61
66486;BME280;53303;47.476;8.084;2023-05-24T06:23:41;95423.50;;;22.30;50.74
66486;BME280;53303;47.476;8.084;2023-05-24T06:26:07;95457.13;;;22.51;50.58
66486;BME280;53303;47.476;8.084;2023-05-24T06:28:36;95453.09;;;22.52;50.70
66486;BME280;53303;47.476;8.084;2023-05-24T06:31:02;95452.88;;;22.50;50.68
66486;BME280;53303;47.476;8.084;2023-05-24T06:33:28;95454.13;;;22.49;50.74
66486;BME280;53303;47.476;8.084;2023-05-24T06:35:56;95449.09;;;22.47;50.65
66486;BME280;53303;47.476;8.084;2023-05-24T06:38:24;95461.72;;;22.48;50.74
66486;BME280;53303;47.476;8.084;2023-05-24T06:40:49;95466.00;;;22.49;50.66
66486;BME280;53303;47.476;8.084;2023-05-24T06:43:15;95456.47;;;22.45;50.59
66486;BME280;53303;47.476;8.084;2023-05-24T06:45:42;95461.25;;;22.44;50.69
66486;BME280;53303;47.476;8.084;2023-05-24T06:48:07;95456.97;;;22.43;50.67
66486;BME280;53303;47.476;8.084;2023-05-24T06:50:36;95461.50;;;22.46;50.27
66486;BME280;53303;47.476;8.084;2023-05-24T06:53:03;95462.97;;;22.47;50.63
66486;BME280;53303;47.476;8.084;2023-05-24T06:55:29;95473.59;;;22.49;50.67
66486;BME280;53303;47.476;8.084;2023-05-24T06:57:54;95463.06;;;22.41;50.66
66486;BME280;53303;47.476;8.084;2023-05-24T07:00:19;95465.03;;;22.47;50.56
66486;BME280;53303;47.476;8.084;2023-05-24T07:02:46;95472.06;;;22.48;50.60
66486;BME280;53303;47.476;8.084;2023-05-24T07:05:12;95473.59;;;22.49;50.57
66486;BME280;53303;47.476;8.084;2023-05-24T07:07:38;95474.84;;;22.48;50.63
66486;BME280;53303;47.476;8.084;2023-05-24T07:10:05;95476.88;;;22.47;50.41
66486;BME280;53303;47.476;8.084;2023-05-24T07:12:35;95476.16;;;22.47;50.42
66486;BME280;53303;47.476;8.084;2023-05-24T07:15:01;95478.41;;;22.48;50.45
66486;BME280;53303;47.476;8.084;2023-05-24T07:17:26;95473.94;;;22.39;50.72
66486;BME280;53303;47.476;8.084;2023-05-24T07:19:52;95492.81;;;22.47;50.63
66486;BME280;53303;47.476;8.084;2023-05-24T07:22:17;95494.09;;;22.46;50.55
66486;BME280;53303;47.476;8.084;2023-05-24T07:24:43;95492.81;;;22.47;50.57
66486;BME280;53303;47.476;8.084;2023-05-24T07:27:10;95497.38;;;22.44;50.51
66486;BME280;53303;47.476;8.084;2023-05-24T07:29:36;95497.63;;;22.46;50.52
66486;BME280;53303;47.476;8.084;2023-05-24T07:32:01;95492.13;;;22.40;50.49
66486;BME280;53303;47.476;8.084;2023-05-24T07:34:28;95492.38;;;22.42;50.45
66486;BME280;53303;47.476;8.084;2023-05-24T07:36:55;95494.88;;;22.46;50.50
66486;BME280;53303;47.476;8.084;2023-05-24T07:39:24;95492.59;;;22.45;50.59
66486;BME280;53303;47.476;8.084;2023-05-24T07:41:51;95495.59;;;22.47;50.54
66486;BME280;53303;47.476;8.084;2023-05-24T07:44:17;95487.03;;;22.45;50.58
66486;BME280;53303;47.476;8.084;2023-05-24T07:46:43;95481.00;;;22.40;50.49
66486;BME280;53303;47.476;8.084;2023-05-24T07:49:08;95491.09;;;22.43;50.56
66486;BME280;53303;47.476;8.084;2023-05-24T07:51:37;95491.53;;;22.48;50.39
66486;BME280;53303;47.476;8.084;2023-05-24T07:54:03;95497.63;;;22.46;50.52
66486;BME280;53303;47.476;8.084;2023-05-24T07:56:29;95497.63;;;22.46;50.40
66486;BME280;53303;47.476;8.084;2023-05-24T07:58:54;95483.03;;;22.40;50.06
66486;BME280;53303;47.476;8.084;2023-05-24T08:01:27;95487.56;;;22.43;50.54
66486;BME280;53303;47.476;8.084;2023-05-24T08:03:53;95495.38;;;22.45;50.52
66486;BME280;53303;47.476;8.084;2023-05-24T08:06:18;95488.81;;;22.42;50.61
66486;BME280;53303;47.476;8.084;2023-05-24T08:08:43;95496.41;;;22.41;50.41
66486;BME280;53303;47.476;8.084;2023-05-24T08:11:10;95494.09;;;22.46;50.39
66486;BME280;53303;47.476;8.084;2023-05-24T08:13:36;95491.31;;;22.46;50.60
66486;BME280;53303;47.476;8.084;2023-05-24T08:16:01;95492.59;;;22.45;50.65
66486;BME280;53303;47.476;8.084;2023-05-24T08:18:26;95499.44;;;22.43;50.52
66486;BME280;53303;47.476;8.084;2023-05-24T08:20:52;95495.66;;;22.41;50.54
66486;BME280;53303;47.476;8.084;2023-05-24T08:23:20;95501.47;;;22.43;50.60
66486;BME280;53303;47.476;8.084;2023-05-24T08:25:46;95491.91;;;22.38;50.47
66486;BME280;53303;47.476;8.084;2023-05-24T08:28:11;95504.47;;;22.45;50.25
66486;BME280;53303;47.476;8.084;2023-05-24T08:30:39;95502.19;;;22.43;50.41
66486;BME280;53303;47.476;8.084;2023-05-24T08:33:06;95498.22;;;22.39;50.35
66486;BME280;53303;47.476;8.084;2023-05-24T08:35:34;95497.97;;;22.37;50.59
66486;BME280;53303;47.476;8.084;2023-05-24T08:38:00;95496.41;;;22.41;50.42
66486;BME280;53303;47.476;8.084;2023-05-24T08:40:26;95497.69;;;22.40;50.42
66486;BME280;53303;47.476;8.084;2023-05-24T08:42:51;95498.69;;;22.43;50.45
66486;BME280;53303;47.476;8.084;2023-05-24T08:45:17;95490.84;;;22.41;50.36
66486;BME280;53303;47.476;8.084;2023-05-24T08:47:49;95494.44;;;22.36;50.35
66486;BME280;53303;47.476;8.084;2023-05-24T08:50:17;95499.94;;;22.42;50.58
66486;BME280;53303;47.476;8.084;2023-05-24T08:52:44;95501.47;;;22.43;50.35
66486;BME280;53303;47.476;8.084;2023-05-24T08:55:13;95503.50;;;22.42;50.35
66486;BME280;53303;47.476;8.084;2023-05-24T08:57:39;95503.50;;;22.42;50.27
66486;BME280;53303;47.476;8.084;2023-05-24T09:00:09;95498.69;;;22.43;50.30
66486;BME280;53303;47.476;8.084;2023-05-24T09:02:37;95502.72;;;22.42;50.46
66486;BME280;53303;47.476;8.084;2023-05-24T09:05:06;95493.94;;;22.38;50.33
66486;BME280;53303;47.476;8.084;2023-05-24T09:07:36;95512.56;;;22.43;50.42
66486;BME280;53303;47.476;8.084;2023-05-24T09:10:07;95508.81;;;22.40;50.36
66486;BME280;53303;47.476;8.084;2023-05-24T09:12:33;95508.28;;;22.42;50.42
66486;BME280;53303;47.476;8.084;2023-05-24T09:15:01;95515.38;;;22.43;50.46
66486;BME280;53303;47.476;8.084;2023-05-24T09:17:30;95504.59;;;22.34;50.31
66486;BME280;53303;47.476;8.084;2023-05-24T09:19:57;95520.19;;;22.42;50.43
66486;BME280;53303;47.476;8.084;2023-05-24T09:22:26;95515.38;;;22.43;50.38
66486;BME280;53303;47.476;8.084;2023-05-24T09:24:56;95519.41;;;22.42;50.41
66486;BME280;53303;47.476;8.084;2023-05-24T09:27:22;95513.84;;;22.42;50.54
66486;BME280;53303;47.476;8.084;2023-05-24T09:29:49;95524.22;;;22.41;50.48
66486;BME280;53303;47.476;8.084;2023-05-24T09:32:16;95517.91;;;22.41;50.45
66486;BME280;53303;47.476;8.084;2023-05-24T09:34:43;95519.69;;;22.38;50.35
66486;BME280;53303;47.476;8.084;2023-05-24T09:37:14;95512.66;;;22.37;50.45
66486;BME280;53303;47.476;8.084;2023-05-24T09:39:43;95516.41;;;22.40;50.46
66486;BME280;53303;47.476;8.084;2023-05-24T09:42:16;95514.66;;;22.37;50.58
66486;BME280;53303;47.476;8.084;2023-05-24T09:44:46;95518.44;;;22.39;50.50
66486;BME280;53303;47.476;8.084;2023-05-24T09:47:11;95528.25;;;22.40;50.46
66486;BME280;53303;47.476;8.084;2023-05-24T09:49:37;95528.25;;;22.40;50.44
66486;BME280;53303;47.476;8.084;2023-05-24T09:52:03;95521.50;;;22.36;50.44
66486;BME280;53303;47.476;8.084;2023-05-24T09:54:31;95521.97;;;22.40;50.40
66486;BME280;53303;47.476;8.084;2023-05-24T09:56:59;95524.72;;;22.40;50.36
66486;BME280;53303;47.476;8.084;2023-05-24T09:59:26;95526.78;;;22.39;50.28
66486;BME280;53303;47.476;8.084;2023-05-24T10:01:56;95526.53;;;22.37;50.51
66486;BME280;53303;47.476;8.084;2023-05-24T10:04:33;95528.56;;;22.37;50.42
66486;BME280;53303;47.476;8.084;2023-05-24T10:06:59;95533.06;;;22.40;50.33
66486;BME280;53303;47.476;8.084;2023-05-24T10:09:28;95524.78;;;22.34;50.51
66486;BME280;53303;47.476;8.084;2023-05-24T10:12:00;95519.75;;;22.33;50.42
66486;BME280;53303;47.476;8.084;2023-05-24T10:14:31;95528.84;;;22.33;50.46
66486;BME280;53303;47.476;8.084;2023-05-24T10:16:57;95529.59;;;22.34;50.40
66486;BME280;53303;47.476;8.084;2023-05-24T10:19:22;95532.63;;;22.36;50.36
66486;BME280;53303;47.476;8.084;2023-05-24T10:21:51;95525.59;;;22.29;50.66
66486;BME280;53303;47.476;8.084;2023-05-24T10:24:18;95514.00;;;22.25;50.29
66486;BME280;53303;47.476;8.084;2023-05-24T10:26:47;95537.66;;;22.37;50.45
66486;BME280;53303;47.476;8.084;2023-05-24T10:31:56;95539.16;;;22.38;50.43
66486;BME280;53303;47.476;8.084;2023-05-24T10:34:22;95537.44;;;22.35;50.44
66486;BME280;53303;47.476;8.084;2023-05-24T10:36:48;95531.88;;;22.35;50.49
66486;BME280;53303;47.476;8.084;2023-05-24T10:39:14;95538.63;;;22.40;50.42
66486;BME280;53303;47.476;8.084;2023-05-24T10:41:42;95533.59;;;22.38;50.35
66486;BME280;53303;47.476;8.084;2023-05-24T10:44:12;95536.38;;;22.38;50.45
66486;BME280;53303;47.476;8.084;2023-05-24T10:47:09;95525.53;;;22.35;50.44
66486;BME280;53303;47.476;8.084;2023-05-24T10:49:47;95533.88;;;22.35;50.39
66486;BME280;53303;47.476;8.084;2023-05-24T10:52:15;95531.34;;;22.37;50.43
66486;BME280;53303;47.476;8.084;2023-05-24T10:55:00;95535.69;;;22.32;50.36
66486;BME280;53303;47.476;8.084;2023-05-24T10:57:28;95543.00;;;22.35;50.31
66486;BME280;53303;47.476;8.084;2023-05-24T10:59:55;95534.88;;;22.37;50.41
66486;BME280;53303;47.476;8.084;2023-05-24T11:02:21;95534.09;;;22.37;50.33
66486;BME280;53303;47.476;8.084;2023-05-24T11:04:47;95545.22;;;22.37;50.37
66486;BME280;53303;47.476;8.084;2023-05-24T11:07:14;95536.66;;;22.35;50.20
66486;BME280;53303;47.476;8.084;2023-05-24T11:09:41;95542.22;;;22.35;50.20
66486;BME280;53303;47.476;8.084;2023-05-24T11:12:29;95538.19;;;22.36;50.29
66486;BME280;53303;47.476;8.084;2023-05-24T11:15:00;95540.97;;;22.36;50.31
66486;BME280;53303;47.476;8.084;2023-05-24T11:17:27;95547.25;;;22.36;50.33
66486;BME280;53303;47.476;8.084;2023-05-24T11:19:54;95538.91;;;22.36;50.19
66486;BME280;53303;47.476;8.084;2023-05-24T11:22:22;95539.66;;;22.37;50.59
66486;BME280;53303;47.476;8.084;2023-05-24T11:24:48;95530.41;;;22.29;50.27
66486;BME280;53303;47.476;8.084;2023-05-24T11:27:15;95539.97;;;22.33;50.37
66486;BME280;53303;47.476;8.084;2023-05-24T11:29:45;95540.22;;;22.35;50.20
66486;BME280;53303;47.476;8.084;2023-05-24T11:32:18;95531.63;;;22.33;50.39
66486;BME280;53303;47.476;8.084;2023-05-24T11:34:47;95531.09;;;22.35;50.27
66486;BME280;53303;47.476;8.084;2023-05-24T11:37:13;95531.88;;;22.35;50.24
66486;BME280;53303;47.476;8.084;2023-05-24T11:39:39;95525.53;;;22.35;50.28
66486;BME280;53303;47.476;8.084;2023-05-24T11:42:06;95524.28;;;22.36;50.10
66486;BME280;53303;47.476;8.084;2023-05-24T11:44:33;95520.78;;;22.30;50.14
66486;BME280;53303;47.476;8.084;2023-05-24T11:47:04;95526.31;;;22.35;50.26
66486;BME280;53303;47.476;8.084;2023-05-24T11:49:30;95520.03;;;22.29;50.30
66486;BME280;53303;47.476;8.084;2023-05-24T11:51:58;95532.63;;;22.36;50.04
66486;BME280;53303;47.476;8.084;2023-05-24T11:54:27;95533.66;;;22.33;50.24
66486;BME280;53303;47.476;8.084;2023-05-24T11:56:53;95525.38;;;22.27;50.26
66486;BME280;53303;47.476;8.084;2023-05-24T11:59:23;95534.41;;;22.33;50.26
66486;BME280;53303;47.476;8.084;2023-05-24T12:01:55;95531.63;;;22.33;50.26
66486;BME280;53303;47.476;8.084;2023-05-24T12:04:24;95529.59;;;22.34;50.28
66486;BME280;53303;47.476;8.084;2023-05-24T12:06:49;95513.28;;;22.19;50.12
66486;BME280;53303;47.476;8.084;2023-05-24T12:09:15;95534.16;;;22.31;50.22
66486;BME280;53303;47.476;8.084;2023-05-24T12:11:48;95518.25;;;22.26;50.08
66486;BME280;53303;47.476;8.084;2023-05-24T12:14:23;95530.66;;;22.31;50.28
66486;BME280;53303;47.476;8.084;2023-05-24T12:16:53;95522.84;;;22.23;50.28
66486;BME280;53303;47.476;8.084;2023-05-24T12:19:20;95534.69;;;22.30;50.24
66486;BME280;53303;47.476;8.084;2023-05-24T12:21:54;95540.50;;;22.32;50.14
66486;BME280;53303;47.476;8.084;2023-05-24T12:24:22;95525.84;;;22.25;50.29
66486;BME280;53303;47.476;8.084;2023-05-24T12:26:47;95529.91;;;22.24;50.51
66486;BME280;53303;47.476;8.084;2023-05-24T12:29:14;95528.38;;;22.29;50.33
66486;BME280;53303;47.476;8.084;2023-05-24T12:31:41;95536.94;;;22.31;50.28
66486;BME280;53303;47.476;8.084;2023-05-24T12:34:12;95530.66;;;22.25;50.36
66486;BME280;53303;47.476;8.084;2023-05-24T12:36:40;95535.75;;;22.27;50.42
66486;BME280;53303;47.476;8.084;2023-05-24T12:39:26;95541.53;;;22.29;50.27
66486;BME280;53303;47.476;8.084;2023-05-24T12:42:02;95539.00;;;22.25;50.31
66486;BME280;53303;47.476;8.084;2023-05-24T12:44:30;95529.16;;;22.24;50.15
66486;BME280;53303;47.476;8.084;2023-05-24T12:46:56;95524.88;;;22.23;50.48
66486;BME280;53303;47.476;8.084;2023-05-24T12:49:23;95533.94;;;22.29;50.30
66486;BME280;53303;47.476;8.084;2023-05-24T12:51:49;95539.50;;;22.29;50.25
66486;BME280;53303;47.476;8.084;2023-05-24T12:54:23;95536.00;;;22.23;50.19
66486;BME280;53303;47.476;8.084;2023-05-24T12:56:49;95537.47;;;22.30;50.25
66486;BME280;53303;47.476;8.084;2023-05-24T12:59:15;95520.59;;;22.22;50.13
66486;BME280;53303;47.476;8.084;2023-05-24T13:01:40;95531.16;;;22.29;50.28
66486;BME280;53303;47.476;8.084;2023-05-24T13:04:15;95529.66;;;22.28;50.23
66486;BME280;53303;47.476;8.084;2023-05-24T13:06:42;95531.16;;;22.29;50.30
66486;BME280;53303;47.476;8.084;2023-05-24T13:09:10;95522.06;;;22.29;50.08
66486;BME280;53303;47.476;8.084;2023-05-24T13:11:35;95525.09;;;22.31;50.24
66486;BME280;53303;47.476;8.084;2023-05-24T13:14:03;95518.78;;;22.30;50.41
66486;BME280;53303;47.476;8.084;2023-05-24T13:16:28;95513.22;;;22.30;50.28
66486;BME280;53303;47.476;8.084;2023-05-24T13:18:54;95511.19;;;22.31;50.14